createdAt,value
2019-03-30T00:29:48.727Z,46.10
2019-03-30T00:59:52.371Z,45.90
2019-03-30T01:29:55.941Z,39.73
2019-03-30T01:59:59.570Z,39.77
2019-03-30T02:30:03.889Z,39.97
2019-03-30T03:00:10.349Z,36.93
2019-03-30T03:30:14.524Z,35.43
2019-03-30T04:00:18.232Z,38.90
2019-03-30T04:30:21.917Z,36.23
2019-03-30T05:00:25.656Z,36.23
2019-03-30T05:30:29.360Z,40.90
2019-03-30T06:00:33.714Z,44.45
2019-03-30T06:30:37.319Z,59.70
2019-03-30T07:00:42.004Z,49.73
2019-03-30T07:30:45.995Z,54.98
2019-03-30T08:00:49.894Z,52.27
2019-03-30T08:30:54.197Z,50.38
2019-03-30T09:00:57.879Z,52.73
2019-03-30T09:31:01.615Z,51.20
2019-03-30T10:01:05.328Z,50.40
2019-03-30T10:31:08.936Z,50.50
2019-03-30T11:01:12.513Z,51.48
2019-03-30T11:31:16.200Z,50.78
2019-03-30T12:01:21.802Z,52.43
2019-03-30T12:31:25.244Z,51.60
2019-03-30T13:01:28.964Z,51.18
2019-03-30T13:31:32.600Z,50.73
2019-03-30T14:01:36.270Z,49.25
2019-03-30T14:31:39.862Z,49.75
2019-03-30T15:01:43.543Z,48.78
2019-03-30T15:31:47.192Z,49.40
2019-03-30T16:01:50.802Z,49.98
2019-03-30T16:31:54.451Z,49.63
2019-03-30T17:01:58.066Z,53.52
2019-03-30T17:32:01.743Z,52.45
2019-03-30T18:02:07.756Z,61.07
2019-03-30T18:32:11.612Z,54.77
2019-03-30T19:02:15.213Z,52.67
2019-03-30T19:32:18.795Z,49.60
2019-03-30T20:02:22.463Z,51.60
2019-03-30T20:32:26.071Z,50.57
2019-03-30T21:30:02.333Z,61.63
2019-03-30T22:00:11.130Z,60.37
2019-03-30T22:30:24.639Z,52.65
2019-03-30T23:00:39.133Z,63.93
2019-03-30T23:30:53.558Z,50.90
